createdAt,value
2022-12-17T00:00:42.246Z,33.73
2022-12-17T00:03:29.952Z,33.67
2022-12-17T00:06:15.374Z,36.57
2022-12-17T00:09:00.925Z,34.83
2022-12-17T00:11:46.137Z,34.30
2022-12-17T00:14:31.570Z,31.90
2022-12-17T00:17:17.161Z,34.67
2022-12-17T00:20:02.563Z,34.17
2022-12-17T00:22:47.950Z,30.50
2022-12-17T00:25:33.755Z,37.67
2022-12-17T00:28:19.188Z,31.90
2022-12-17T00:31:11.088Z,30.80
2022-12-17T00:33:56.720Z,33.00
2022-12-17T00:36:42.249Z,35.07
2022-12-17T00:39:27.679Z,31.87
2022-12-17T00:42:15.196Z,34.03
2022-12-17T00:45:00.610Z,33.53
2022-12-17T00:47:46.045Z,32.20
2022-12-17T00:50:31.363Z,31.70
2022-12-17T00:53:16.801Z,31.30
2022-12-17T00:56:02.282Z,31.37
2022-12-17T00:58:47.702Z,26.23
2022-12-17T01:01:33.429Z,30.87
2022-12-17T01:04:19.200Z,29.27
2022-12-17T01:07:04.869Z,32.70
2022-12-17T01:09:50.074Z,29.50
2022-12-17T01:12:35.750Z,30.20
2022-12-17T01:15:21.295Z,31.13
2022-12-17T01:18:06.640Z,27.60
2022-12-17T01:20:52.462Z,31.47
2022-12-17T01:23:38.212Z,28.80
2022-12-17T01:26:24.589Z,30.43
2022-12-17T01:29:09.882Z,27.40
2022-12-17T01:31:55.215Z,28.77
2022-12-17T01:34:40.664Z,29.40
2022-12-17T01:37:36.657Z,29.00
2022-12-17T01:40:22.385Z,23.80
2022-12-17T01:43:07.689Z,19.30
2022-12-17T01:46:06.110Z,29.40
2022-12-17T01:49:02.616Z,30.67
2022-12-17T01:51:50.048Z,27.67
2022-12-17T01:54:38.170Z,28.70
2022-12-17T01:57:25.937Z,27.90
2022-12-17T02:00:19.389Z,28.10
2022-12-17T02:03:05.794Z,17.57
2022-12-17T02:06:22.758Z,23.57
2022-12-17T02:09:29.692Z,17.70
2022-12-17T02:12:53.085Z,19.10
2022-12-17T02:16:05.806Z,26.10
2022-12-17T02:18:59.305Z,28.57
2022-12-17T02:21:47.370Z,23.00
2022-12-17T02:24:51.044Z,26.87
2022-12-17T02:27:36.854Z,26.90
2022-12-17T02:30:27.522Z,24.63
2022-12-17T02:33:14.785Z,30.50
2022-12-17T02:36:06.249Z,27.90
2022-12-17T02:38:52.849Z,27.90
2022-12-17T02:41:48.190Z,26.43
2022-12-17T02:44:36.924Z,29.87
2022-12-17T02:47:26.559Z,27.57
2022-12-17T02:50:12.874Z,28.23
2022-12-17T02:53:05.100Z,26.60
2022-12-17T02:55:51.353Z,19.20
2022-12-17T02:58:36.689Z,28.37
2022-12-17T03:01:23.993Z,25.97
2022-12-17T03:04:10.141Z,29.47
2022-12-17T03:06:55.525Z,26.57
2022-12-17T03:09:41.332Z,27.40
2022-12-17T03:12:26.540Z,25.90
2022-12-17T03:15:11.855Z,29.73
2022-12-17T03:17:57.136Z,27.13
2022-12-17T03:20:42.560Z,26.00
2022-12-17T03:23:31.230Z,25.83
2022-12-17T03:26:20.160Z,27.10
2022-12-17T03:29:06.237Z,23.03
2022-12-17T03:31:51.993Z,27.33
2022-12-17T03:34:37.382Z,29.30
2022-12-17T03:37:24.448Z,26.60
2022-12-17T03:40:09.784Z,29.30
2022-12-17T03:42:55.575Z,25.87
2022-12-17T03:45:41.150Z,29.40
2022-12-17T03:48:31.188Z,28.80
2022-12-17T03:51:17.591Z,25.17
2022-12-17T03:54:04.014Z,30.13
2022-12-17T03:56:50.915Z,26.23
2022-12-17T03:59:36.231Z,29.80
2022-12-17T04:02:22.205Z,32.53
2022-12-17T04:05:08.285Z,26.50
2022-12-17T04:07:54.165Z,29.40
2022-12-17T04:10:39.464Z,29.10
2022-12-17T04:13:24.831Z,26.37
2022-12-17T04:16:10.584Z,20.70
2022-12-17T04:18:56.500Z,31.63
2022-12-17T04:21:41.770Z,28.87
2022-12-17T04:24:27.699Z,32.27
2022-12-17T04:27:13.199Z,23.90
2022-12-17T04:29:58.485Z,31.87
2022-12-17T04:32:43.819Z,32.40
2022-12-17T04:35:29.287Z,30.20
2022-12-17T04:38:15.020Z,34.97
2022-12-17T04:41:00.489Z,34.10
2022-12-17T04:43:46.124Z,30.50
2022-12-17T04:46:31.876Z,31.50
2022-12-17T04:49:17.720Z,33.90
2022-12-17T04:52:03.010Z,29.40
2022-12-17T04:54:48.421Z,33.47
2022-12-17T04:57:34.095Z,32.37
2022-12-17T05:00:19.753Z,32.27
2022-12-17T05:03:05.068Z,29.77
2022-12-17T05:05:50.806Z,31.77
2022-12-17T05:08:56.239Z,27.20
2022-12-17T05:11:41.829Z,33.00
2022-12-17T05:14:27.207Z,30.00
2022-12-17T05:17:13.130Z,32.83
2022-12-17T05:19:59.044Z,29.80
2022-12-17T05:22:44.413Z,33.20
2022-12-17T05:25:29.575Z,32.30
2022-12-17T05:28:14.890Z,34.53
2022-12-17T05:31:00.567Z,33.40
2022-12-17T05:33:46.731Z,34.70
2022-12-17T05:36:31.889Z,36.00
2022-12-17T05:39:17.500Z,35.40
2022-12-17T05:42:02.979Z,31.90
2022-12-17T05:44:48.290Z,33.50
2022-12-17T05:47:33.915Z,33.30
2022-12-17T05:50:36.605Z,33.57
2022-12-17T05:53:25.446Z,26.50
2022-12-17T05:56:12.364Z,31.57
2022-12-17T05:58:58.833Z,32.70
2022-12-17T06:01:44.279Z,32.40
2022-12-17T06:04:30.154Z,34.13
2022-12-17T06:07:15.640Z,34.43
2022-12-17T06:10:00.974Z,33.40
2022-12-17T06:12:46.446Z,33.13
2022-12-17T06:15:32.769Z,31.00
2022-12-17T06:18:18.566Z,36.87
2022-12-17T06:21:04.753Z,33.10
2022-12-17T06:23:50.107Z,27.77
2022-12-17T06:26:36.178Z,33.07
2022-12-17T06:29:21.568Z,34.30
2022-12-17T06:32:07.130Z,28.67
2022-12-17T06:34:52.520Z,33.40
2022-12-17T06:37:37.719Z,36.57
2022-12-17T06:40:27.063Z,38.20
2022-12-17T06:43:14.564Z,37.40
2022-12-17T06:46:00.363Z,40.70
2022-12-17T06:48:46.164Z,47.00
2022-12-17T06:51:32.164Z,37.50
2022-12-17T06:54:17.505Z,37.50
2022-12-17T06:57:03.014Z,37.30
2022-12-17T06:59:48.794Z,34.97
2022-12-17T07:02:34.368Z,33.67
2022-12-17T07:05:20.323Z,33.30
2022-12-17T07:08:05.589Z,32.13
2022-12-17T07:10:51.349Z,27.07
2022-12-17T07:13:38.281Z,29.90
2022-12-17T07:16:24.551Z,31.80
2022-12-17T07:19:10.136Z,26.77
2022-12-17T07:21:55.552Z,31.40
2022-12-17T07:24:41.360Z,31.33
2022-12-17T07:27:26.814Z,29.40
2022-12-17T07:30:12.120Z,33.93
2022-12-17T07:32:57.524Z,29.47
2022-12-17T07:35:43.204Z,30.50
2022-12-17T07:38:30.338Z,28.67
2022-12-17T07:41:18.086Z,31.83
2022-12-17T07:44:03.399Z,33.53
2022-12-17T07:46:48.843Z,37.03
2022-12-17T07:49:34.091Z,33.30
2022-12-17T07:52:19.515Z,33.90
2022-12-17T07:55:04.985Z,34.07
2022-12-17T07:57:50.512Z,36.20
2022-12-17T08:00:36.475Z,37.47
2022-12-17T08:03:21.944Z,34.23
2022-12-17T08:06:07.501Z,36.93
2022-12-17T08:08:53.120Z,33.87
2022-12-17T08:11:38.348Z,32.60
2022-12-17T08:14:23.734Z,31.63
2022-12-17T08:17:09.137Z,29.40
2022-12-17T08:19:55.870Z,30.17
2022-12-17T08:22:41.725Z,36.90
2022-12-17T08:25:28.055Z,34.70
2022-12-17T08:28:49.138Z,31.93
2022-12-17T08:31:25.924Z,27.13
2022-12-17T08:34:11.649Z,31.30
2022-12-17T08:36:56.974Z,30.07
2022-12-17T08:39:42.409Z,29.00
2022-12-17T08:42:27.888Z,28.70
2022-12-17T08:45:13.293Z,29.00
2022-12-17T08:48:03.584Z,28.80
2022-12-17T08:50:49.927Z,28.80
2022-12-17T08:53:35.454Z,28.97
2022-12-17T08:56:21.256Z,30.93
2022-12-17T08:59:07.414Z,30.30
2022-12-17T09:01:52.762Z,30.03
2022-12-17T09:04:38.460Z,29.60
2022-12-17T09:07:23.810Z,33.23
2022-12-17T09:10:09.140Z,27.00
2022-12-17T09:12:55.353Z,28.53
2022-12-17T09:15:42.849Z,33.13
2022-12-17T09:18:28.081Z,31.03
2022-12-17T09:21:15.110Z,28.07
2022-12-17T09:24:00.644Z,29.10
2022-12-17T09:26:45.946Z,26.60
2022-12-17T09:29:31.725Z,29.83
2022-12-17T09:32:17.152Z,23.20
2022-12-17T09:35:02.654Z,28.97
2022-12-17T09:37:47.921Z,25.03
2022-12-17T09:41:02.748Z,26.83
2022-12-17T09:44:27.248Z,24.50
2022-12-17T09:48:03.564Z,27.70
2022-12-17T09:50:49.451Z,26.97
2022-12-17T09:53:47.522Z,25.80
2022-12-17T09:56:34.258Z,29.17
2022-12-17T09:59:19.620Z,26.27
2022-12-17T10:02:05.170Z,26.63
2022-12-17T10:04:59.851Z,27.37
2022-12-17T10:07:54.335Z,28.10
2022-12-17T10:10:44.932Z,23.83
2022-12-17T10:13:42.564Z,19.50
2022-12-17T10:17:09.970Z,24.33
2022-12-17T10:20:00.369Z,27.73
2022-12-17T10:22:46.202Z,21.47
2022-12-17T10:25:41.616Z,28.37
2022-12-17T10:28:34.039Z,23.63
2022-12-17T10:31:27.332Z,28.13
2022-12-17T10:34:17.084Z,29.07
2022-12-17T10:37:09.224Z,30.47
2022-12-17T10:39:55.391Z,29.23
2022-12-17T10:42:56.797Z,27.10
2022-12-17T10:45:47.612Z,24.30
2022-12-17T10:48:45.910Z,29.70
2022-12-17T10:51:50.922Z,28.57
2022-12-17T10:54:51.229Z,31.07
2022-12-17T10:57:55.320Z,29.10
2022-12-17T11:00:58.032Z,27.97
2022-12-17T11:03:55.297Z,19.87
2022-12-17T11:06:50.239Z,28.70
2022-12-17T11:09:48.737Z,26.37
2022-12-17T11:12:36.609Z,27.80
2022-12-17T11:15:51.689Z,29.40
2022-12-17T11:18:45.284Z,31.10
2022-12-17T11:21:50.811Z,28.70
2022-12-17T11:24:44.742Z,30.20
2022-12-17T11:27:38.726Z,26.20
2022-12-17T11:30:36.154Z,28.83
2022-12-17T11:33:56.143Z,23.40
2022-12-17T11:37:16.864Z,27.23
2022-12-17T11:40:25.647Z,25.70
2022-12-17T11:43:20.399Z,23.53
2022-12-17T11:46:40.213Z,22.10
2022-12-17T11:49:39.442Z,17.03
2022-12-17T11:52:45.448Z,24.43
2022-12-17T11:56:08.098Z,27.67
2022-12-17T11:59:05.048Z,25.77
2022-12-17T12:02:38.236Z,21.77
2022-12-17T12:06:09.921Z,27.17
2022-12-17T12:09:26.145Z,26.87
2022-12-17T12:12:44.174Z,23.30
2022-12-17T12:16:11.365Z,26.40
2022-12-17T12:19:02.990Z,21.63
2022-12-17T12:22:10.131Z,24.20
2022-12-17T12:25:44.489Z,30.00
2022-12-17T12:28:47.689Z,28.50
2022-12-17T12:31:59.543Z,28.83
2022-12-17T12:34:51.285Z,29.57
2022-12-17T12:37:40.009Z,27.47
2022-12-17T12:41:05.930Z,27.80
2022-12-17T12:43:54.816Z,28.33
2022-12-17T12:46:51.924Z,29.20
2022-12-17T12:49:41.816Z,29.67
2022-12-17T12:52:56.120Z,30.67
2022-12-17T12:55:41.776Z,26.90
2022-12-17T12:58:48.924Z,28.20
2022-12-17T13:01:35.652Z,28.10
2022-12-17T13:04:48.588Z,31.83
2022-12-17T13:07:28.972Z,29.57
2022-12-17T13:09:59.460Z,29.83
2022-12-17T13:12:44.774Z,30.33
2022-12-17T13:15:30.179Z,30.20
2022-12-17T13:18:30.662Z,27.30
2022-12-17T13:21:24.473Z,28.77
2022-12-17T13:23:51.532Z,31.87
2022-12-17T13:26:45.197Z,28.20
2022-12-17T13:29:37.283Z,27.67
2022-12-17T13:32:44.710Z,24.50
2022-12-17T13:35:55.435Z,28.87
2022-12-17T13:38:37.737Z,31.23
2022-12-17T13:41:10.932Z,32.90
2022-12-17T13:43:50.373Z,24.70
2022-12-17T13:46:35.389Z,33.20
2022-12-17T13:49:12.000Z,35.13
2022-12-17T13:51:39.190Z,34.70
2022-12-17T13:54:06.106Z,33.30
2022-12-17T13:56:37.595Z,30.60
2022-12-17T13:59:09.468Z,32.33
2022-12-17T14:01:47.506Z,34.47
2022-12-17T14:04:25.213Z,32.17
2022-12-17T14:06:58.295Z,33.33
2022-12-17T14:09:35.708Z,31.73
2022-12-17T14:12:22.371Z,31.47
2022-12-17T14:14:59.348Z,33.87
2022-12-17T14:17:29.719Z,32.40
2022-12-17T14:20:20.076Z,34.83
2022-12-17T14:22:52.062Z,32.37
2022-12-17T14:25:30.005Z,34.47
2022-12-17T14:28:05.115Z,33.70
2022-12-17T14:30:43.017Z,35.83
2022-12-17T14:33:34.246Z,36.53
2022-12-17T14:36:09.158Z,32.23
2022-12-17T14:38:38.692Z,35.10
2022-12-17T14:41:32.924Z,33.10
2022-12-17T14:44:02.441Z,32.27
2022-12-17T14:46:31.765Z,33.80
2022-12-17T14:49:02.557Z,34.77
2022-12-17T14:51:40.585Z,34.53
2022-12-17T14:54:31.667Z,34.57
2022-12-17T14:57:00.253Z,35.93
2022-12-17T14:59:37.219Z,34.27
2022-12-17T15:02:16.241Z,34.80
2022-12-17T15:04:43.259Z,38.30
2022-12-17T15:07:25.736Z,34.87
2022-12-17T15:09:55.612Z,38.43
2022-12-17T15:12:24.866Z,31.33
2022-12-17T15:14:51.837Z,35.00
2022-12-17T15:17:18.771Z,37.20
2022-12-17T15:19:45.874Z,35.93
2022-12-17T15:22:17.864Z,36.70
2022-12-17T15:24:46.138Z,40.80
2022-12-17T15:27:16.590Z,40.53
2022-12-17T15:29:46.789Z,44.23
2022-12-17T15:32:23.673Z,41.67
2022-12-17T15:34:50.739Z,40.20
2022-12-17T15:37:25.362Z,38.80
2022-12-17T15:39:52.824Z,38.60
2022-12-17T15:42:38.404Z,37.93
2022-12-17T15:45:06.383Z,38.10
2022-12-17T15:47:33.359Z,39.20
2022-12-17T15:50:00.354Z,34.70
2022-12-17T15:52:27.873Z,34.47
2022-12-17T15:54:54.858Z,36.00
2022-12-17T15:57:22.148Z,39.90
2022-12-17T15:59:49.189Z,36.23
2022-12-17T16:02:16.253Z,35.60
2022-12-17T16:04:43.346Z,37.60
2022-12-17T16:07:10.344Z,35.90
2022-12-17T16:09:37.367Z,39.27
2022-12-17T16:12:04.495Z,40.37
2022-12-17T16:14:31.541Z,36.80
2022-12-17T16:16:58.644Z,45.33
2022-12-17T16:19:25.779Z,43.90
2022-12-17T16:21:52.873Z,38.77
2022-12-17T16:24:20.020Z,40.40
2022-12-17T16:26:47.048Z,36.30
2022-12-17T16:29:14.028Z,36.13
2022-12-17T16:31:41.162Z,35.93
2022-12-17T16:34:13.133Z,38.03
2022-12-17T16:36:40.157Z,38.87
2022-12-17T16:39:07.820Z,42.80
2022-12-17T16:41:35.214Z,38.77
2022-12-17T16:44:02.218Z,38.47
2022-12-17T16:46:40.573Z,38.37
2022-12-17T16:49:18.516Z,37.57
2022-12-17T16:51:47.379Z,38.70
2022-12-17T16:54:18.414Z,39.57
2022-12-17T16:56:46.508Z,38.67
2022-12-17T16:59:15.848Z,34.90
2022-12-17T17:01:48.482Z,37.37
2022-12-17T17:04:19.794Z,37.47
2022-12-17T17:06:50.581Z,31.30
2022-12-17T17:09:18.863Z,36.57
2022-12-17T17:11:51.548Z,39.57
2022-12-17T17:14:20.096Z,41.40
2022-12-17T17:16:47.052Z,40.23
2022-12-17T17:19:14.005Z,42.70
2022-12-17T17:21:43.919Z,41.15
2022-12-17T17:24:21.191Z,40.90
2022-12-17T17:26:50.452Z,43.83
2022-12-17T17:29:17.768Z,41.80
2022-12-17T17:34:32.515Z,39.10
2022-12-17T17:36:59.447Z,45.43
2022-12-17T17:39:27.429Z,41.67
2022-12-17T17:41:54.650Z,41.30
2022-12-17T17:44:21.674Z,46.20
2022-12-17T17:46:48.805Z,40.80
2022-12-17T17:49:15.929Z,45.30
2022-12-17T17:54:32.024Z,42.00
2022-12-17T17:56:59.117Z,46.07
2022-12-17T17:59:32.832Z,42.57
2022-12-17T18:02:01.219Z,40.93
2022-12-17T18:04:29.073Z,45.07
2022-12-17T18:09:43.047Z,44.43
2022-12-17T18:12:28.991Z,43.00
2022-12-17T18:17:49.794Z,39.50
2022-12-17T18:20:17.402Z,45.30
2022-12-17T18:22:46.621Z,42.77
2022-12-17T18:25:16.086Z,44.03
2022-12-17T18:27:43.438Z,41.00
2022-12-17T18:30:11.320Z,42.10
2022-12-17T18:32:38.368Z,38.73
2022-12-17T18:35:06.448Z,39.90
2022-12-17T18:37:33.959Z,40.70
2022-12-17T18:40:00.916Z,35.87
2022-12-17T18:42:50.844Z,42.13
2022-12-17T18:45:17.957Z,32.70
2022-12-17T18:47:45.000Z,33.97
2022-12-17T18:50:13.065Z,35.60
2022-12-17T18:52:40.070Z,35.63
2022-12-17T18:55:11.535Z,37.00
2022-12-17T18:57:38.557Z,40.10
2022-12-17T19:00:06.829Z,37.47
2022-12-17T19:02:33.980Z,40.40
2022-12-17T19:05:01.174Z,35.20
2022-12-17T19:07:28.566Z,36.00
2022-12-17T19:09:56.323Z,39.07
2022-12-17T19:12:23.872Z,36.00
2022-12-17T19:14:51.887Z,36.63
2022-12-17T19:17:20.786Z,37.77
2022-12-17T19:19:48.254Z,34.67
2022-12-17T19:22:17.376Z,34.27
2022-12-17T19:24:45.030Z,37.67
2022-12-17T19:27:12.263Z,39.23
2022-12-17T19:29:39.221Z,37.70
2022-12-17T19:32:06.504Z,36.50
2022-12-17T19:34:35.260Z,36.80
2022-12-17T19:37:04.837Z,38.60
2022-12-17T19:39:31.990Z,37.03
2022-12-17T19:41:59.125Z,38.63
2022-12-17T19:44:27.236Z,38.23
2022-12-17T19:46:54.231Z,32.77
2022-12-17T19:49:21.174Z,34.50
2022-12-17T19:51:48.165Z,35.50
2022-12-17T19:54:15.848Z,31.27
2022-12-17T19:56:45.162Z,31.90
2022-12-17T19:59:13.422Z,30.80
2022-12-17T20:01:48.094Z,36.17
2022-12-17T20:04:17.688Z,34.20
2022-12-17T20:06:45.465Z,35.07
2022-12-17T20:09:15.484Z,36.23
2022-12-17T20:11:42.549Z,36.27
2022-12-17T20:14:28.910Z,30.73
2022-12-17T20:16:59.623Z,32.90
2022-12-17T20:19:33.528Z,30.53
2022-12-17T20:22:05.196Z,34.53
2022-12-17T20:24:32.709Z,31.97
2022-12-17T20:27:01.831Z,38.77
2022-12-17T20:29:29.751Z,37.07
2022-12-17T20:31:57.929Z,30.50
2022-12-17T20:34:25.886Z,32.70
2022-12-17T20:36:55.435Z,30.50
2022-12-17T20:39:27.221Z,35.93
2022-12-17T20:41:58.133Z,28.10
2022-12-17T20:44:25.724Z,31.77
2022-12-17T20:46:53.660Z,35.13
2022-12-17T20:49:22.280Z,29.10
2022-12-17T20:51:49.194Z,33.97
2022-12-17T20:54:16.398Z,31.77
2022-12-17T20:56:52.489Z,33.07
2022-12-17T20:59:20.663Z,32.87
2022-12-17T21:01:53.034Z,34.70
2022-12-17T21:04:34.821Z,38.00
2022-12-17T21:07:02.376Z,33.13
2022-12-17T21:09:29.305Z,33.87
2022-12-17T21:11:56.272Z,29.50
2022-12-17T21:14:33.662Z,32.90
2022-12-17T21:17:05.072Z,32.83
2022-12-17T21:19:32.574Z,32.13
2022-12-17T21:21:59.741Z,33.90
2022-12-17T21:24:26.689Z,32.83
2022-12-17T21:26:53.775Z,31.17
2022-12-17T21:29:20.719Z,29.00
2022-12-17T21:31:51.198Z,34.50
2022-12-17T21:34:22.671Z,31.13
2022-12-17T21:36:51.288Z,32.97
2022-12-17T21:39:19.622Z,33.70
2022-12-17T21:42:05.105Z,29.60
2022-12-17T21:44:32.334Z,31.23
2022-12-17T21:46:59.937Z,32.53
2022-12-17T21:49:27.090Z,31.03
2022-12-17T21:51:55.304Z,31.20
2022-12-17T21:54:22.249Z,32.67
2022-12-17T21:56:49.253Z,33.60
2022-12-17T21:59:16.953Z,34.17
2022-12-17T22:01:44.169Z,34.23
2022-12-17T22:04:11.419Z,36.30
2022-12-17T22:06:43.568Z,31.37
2022-12-17T22:09:34.218Z,33.53
2022-12-17T22:12:29.371Z,31.90
2022-12-17T22:14:56.254Z,35.47
2022-12-17T22:17:23.792Z,37.57
2022-12-17T22:19:50.768Z,33.00
2022-12-17T22:22:17.769Z,36.93
2022-12-17T22:24:44.832Z,32.87
2022-12-17T22:27:11.840Z,33.27
2022-12-17T22:29:57.138Z,35.87
2022-12-17T22:32:42.523Z,33.10
2022-12-17T22:36:20.375Z,30.80
2022-12-17T22:41:00.109Z,33.30
2022-12-17T22:44:29.615Z,32.13
2022-12-17T22:44:43.761Z,32.10
2022-12-17T22:46:18.603Z,29.30
2022-12-17T22:48:46.029Z,34.30
2022-12-17T22:51:22.979Z,35.87
2022-12-17T22:53:55.793Z,33.77
2022-12-17T22:56:58.711Z,33.47
2022-12-17T22:59:17.394Z,30.87
2022-12-17T23:01:45.091Z,33.77
2022-12-17T23:04:15.915Z,38.10
2022-12-17T23:06:45.838Z,34.83
2022-12-17T23:09:19.560Z,28.77
2022-12-17T23:11:48.696Z,34.00
2022-12-17T23:14:17.613Z,39.10
2022-12-17T23:16:45.450Z,33.93
2022-12-17T23:19:13.752Z,33.93
2022-12-17T23:21:40.748Z,33.90
2022-12-17T23:24:09.049Z,37.60
2022-12-17T23:26:38.057Z,31.87
2022-12-17T23:29:11.654Z,36.37
2022-12-17T23:31:41.965Z,37.67
2022-12-17T23:34:09.286Z,36.00
2022-12-17T23:36:37.312Z,37.70
2022-12-17T23:39:05.795Z,38.70
2022-12-17T23:41:33.492Z,42.50
2022-12-17T23:44:00.868Z,38.30
2022-12-17T23:46:30.620Z,39.80
2022-12-17T23:48:58.488Z,36.80
2022-12-17T23:51:26.413Z,34.80
2022-12-17T23:53:53.388Z,39.87
2022-12-17T23:56:23.957Z,42.03
2022-12-17T23:59:00.708Z,40.10
